sensor_id;sensor_type;location;lat;lon;timestamp;pressure;altitude;pressure_sealevel;temperature;humidity
60437;BME280;46289;51.992;4.498;2024-03-23T00:54:31;101151.47;;;6.43;100.00
60437;BME280;46289;51.992;4.498;2024-03-23T00:56:32;101152.50;;;6.34;100.00
60437;BME280;46289;51.992;4.498;2024-03-23T00:58:33;101154.97;;;6.42;100.00
60437;BME280;46289;51.992;4.498;2024-03-23T01:00:34;101144.72;;;6.33;100.00
60437;BME280;46289;51.992;4.498;2024-03-23T01:02:36;101139.47;;;6.33;100.00
60437;BME280;46289;51.992;4.498;2024-03-23T01:04:38;101143.94;;;6.28;100.00
60437;BME280;46289;51.992;4.498;2024-03-23T01:06:41;101141.47;;;6.19;100.00
60437;BME280;46289;51.992;4.498;2024-03-23T01:08:43;101145.03;;;6.14;100.00
60437;BME280;46289;51.992;4.498;2024-03-23T01:10:53;101139.03;;;6.09;100.00
60437;BME280;46289;51.992;4.498;2024-03-23T01:12:55;101139.09;;;6.06;100.00
60437;BME280;46289;51.992;4.498;2024-03-23T01:14:56;101131.25;;;6.06;100.00
60437;BME280;46289;51.992;4.498;2024-03-23T01:16:57;101132.91;;;6.10;100.00
60437;BME280;46289;51.992;4.498;2024-03-23T01:18:58;101139.94;;;6.05;100.00
60437;BME280;46289;51.992;4.498;2024-03-23T01:21:00;101137.47;;;5.99;100.00
60437;BME280;46289;51.992;4.498;2024-03-23T01:23:03;101136.56;;;6.00;100.00
60437;BME280;46289;51.992;4.498;2024-03-23T01:25:05;101139.16;;;6.00;100.00
60437;BME280;46289;51.992;4.498;2024-03-23T01:27:06;101131.31;;;6.03;100.00
60437;BME280;46289;51.992;4.498;2024-03-23T01:29:07;101130.59;;;5.95;100.00
60437;BME280;46289;51.992;4.498;2024-03-23T01:31:09;101130.53;;;5.97;100.00
60437;BME280;46289;51.992;4.498;2024-03-23T01:33:10;101128.84;;;5.96;100.00
60437;BME280;46289;51.992;4.498;2024-03-23T01:35:11;101132.25;;;5.98;100.00
60437;BME280;46289;51.992;4.498;2024-03-23T01:37:13;101130.59;;;5.93;100.00
60437;BME280;46289;51.992;4.498;2024-03-23T01:39:16;101127.97;;;5.95;100.00
60437;BME280;46289;51.992;4.498;2024-03-23T01:41:18;101124.56;;;5.90;100.00
60437;BME280;46289;51.992;4.498;2024-03-23T01:43:19;101122.09;;;5.79;100.00
60437;BME280;46289;51.992;4.498;2024-03-23T01:45:20;101128.09;;;5.86;100.00
60437;BME280;46289;51.992;4.498;2024-03-23T01:47:22;101128.13;;;5.83;100.00
60437;BME280;46289;51.992;4.498;2024-03-23T01:49:23;101124.75;;;5.76;100.00
60437;BME280;46289;51.992;4.498;2024-03-23T01:51:25;101124.06;;;5.66;100.00
60437;BME280;46289;51.992;4.498;2024-03-23T01:53:27;101124.94;;;5.65;100.00
60437;BME280;46289;51.992;4.498;2024-03-23T01:55:32;101117.03;;;5.70;100.00
60437;BME280;46289;51.992;4.498;2024-03-23T01:57:33;101131.78;;;5.72;100.00
60437;BME280;46289;51.992;4.498;2024-03-23T01:59:35;101116.13;;;5.72;100.00
60437;BME280;46289;51.992;4.498;2024-03-23T02:01:36;101120.38;;;5.80;100.00
60437;BME280;46289;51.992;4.498;2024-03-23T02:03:37;101113.50;;;5.74;100.00
60437;BME280;46289;51.992;4.498;2024-03-23T02:05:39;101116.25;;;5.66;100.00
60437;BME280;46289;51.992;4.498;2024-03-23T02:07:42;101105.81;;;5.66;100.00
60437;BME280;46289;51.992;4.498;2024-03-23T02:09:43;101111.16;;;5.57;100.00
60437;BME280;46289;51.992;4.498;2024-03-23T02:11:47;101111.31;;;5.46;100.00
60437;BME280;46289;51.992;4.498;2024-03-23T02:13:48;101112.22;;;5.42;100.00
60437;BME280;46289;51.992;4.498;2024-03-23T02:15:49;101107.97;;;5.40;100.00
60437;BME280;46289;51.992;4.498;2024-03-23T02:17:50;101099.25;;;5.41;100.00
60437;BME280;46289;51.992;4.498;2024-03-23T02:19:52;101101.00;;;5.39;100.00
60437;BME280;46289;51.992;4.498;2024-03-23T02:21:53;101102.03;;;5.28;100.00
60437;BME280;46289;51.992;4.498;2024-03-23T02:23:58;101103.88;;;5.22;100.00
60437;BME280;46289;51.992;4.498;2024-03-23T02:25:59;101095.94;;;5.30;100.00
60437;BME280;46289;51.992;4.498;2024-03-23T02:28:00;101100.25;;;5.31;100.00
60437;BME280;46289;51.992;4.498;2024-03-23T02:30:02;101096.84;;;5.25;100.00
60437;BME280;46289;51.992;4.498;2024-03-23T02:32:04;101090.84;;;5.20;100.00
60437;BME280;46289;51.992;4.498;2024-03-23T02:34:09;101088.31;;;5.16;100.00
60437;BME280;46289;51.992;4.498;2024-03-23T02:36:10;101089.25;;;5.10;100.00
60437;BME280;46289;51.992;4.498;2024-03-23T02:38:12;101090.09;;;5.11;100.00
60437;BME280;46289;51.992;4.498;2024-03-23T02:40:19;101091.97;;;5.02;100.00
60437;BME280;46289;51.992;4.498;2024-03-23T02:42:20;101085.91;;;5.02;100.00
60437;BME280;46289;51.992;4.498;2024-03-23T02:44:24;101090.31;;;4.98;100.00
60437;BME280;46289;51.992;4.498;2024-03-23T02:46:25;101081.66;;;4.95;100.00
60437;BME280;46289;51.992;4.498;2024-03-23T02:48:26;101084.28;;;4.93;100.00
60437;BME280;46289;51.992;4.498;2024-03-23T02:50:27;101086.91;;;4.92;100.00
60437;BME280;46289;51.992;4.498;2024-03-23T02:52:28;101081.78;;;4.87;100.00
60437;BME280;46289;51.992;4.498;2024-03-23T02:54:30;101077.47;;;4.84;100.00
60437;BME280;46289;51.992;4.498;2024-03-23T02:56:35;101073.19;;;4.79;100.00
60437;BME280;46289;51.992;4.498;2024-03-23T02:58:36;101074.06;;;4.76;100.00
60437;BME280;46289;51.992;4.498;2024-03-23T03:00:37;101074.94;;;4.78;100.00
60437;BME280;46289;51.992;4.498;2024-03-23T03:02:38;101082.78;;;4.75;100.00
60437;BME280;46289;51.992;4.498;2024-03-23T03:04:39;101074.97;;;4.74;100.00
60437;BME280;46289;51.992;4.498;2024-03-23T03:06:40;101074.16;;;4.72;100.00
60437;BME280;46289;51.992;4.498;2024-03-23T03:08:42;101074.16;;;4.70;100.00
60437;BME280;46289;51.992;4.498;2024-03-23T03:10:43;101073.25;;;4.73;100.00
60437;BME280;46289;51.992;4.498;2024-03-23T03:12:47;101076.81;;;4.66;100.00
60437;BME280;46289;51.992;4.498;2024-03-23T03:14:48;101074.22;;;4.67;100.00
60437;BME280;46289;51.992;4.498;2024-03-23T03:16:49;101069.91;;;4.63;100.00
60437;BME280;46289;51.992;4.498;2024-03-23T03:18:50;101073.44;;;4.59;100.00
60437;BME280;46289;51.992;4.498;2024-03-23T03:20:54;101075.16;;;4.60;100.00
60437;BME280;46289;51.992;4.498;2024-03-23T03:22:55;101072.50;;;4.63;100.00
60437;BME280;46289;51.992;4.498;2024-03-23T03:24:56;101072.50;;;4.63;100.00
60437;BME280;46289;51.992;4.498;2024-03-23T03:26:57;101079.41;;;4.69;100.00
60437;BME280;46289;51.992;4.498;2024-03-23T03:29:01;101079.28;;;4.76;100.00
60437;BME280;46289;51.992;4.498;2024-03-23T03:31:03;101072.41;;;4.72;100.00
60437;BME280;46289;51.992;4.498;2024-03-23T03:33:04;101071.38;;;4.84;100.00
60437;BME280;46289;51.992;4.498;2024-03-23T03:35:06;101068.66;;;4.92;100.00
60437;BME280;46289;51.992;4.498;2024-03-23T03:37:07;101075.69;;;4.87;100.00
60437;BME280;46289;51.992;4.498;2024-03-23T03:39:09;101061.81;;;4.88;100.00
60437;BME280;46289;51.992;4.498;2024-03-23T03:41:10;101065.22;;;4.91;100.00
60437;BME280;46289;51.992;4.498;2024-03-23T03:43:11;101057.41;;;4.93;100.00
60437;BME280;46289;51.992;4.498;2024-03-23T03:45:16;101057.41;;;4.91;100.00
60437;BME280;46289;51.992;4.498;2024-03-23T03:47:19;101049.59;;;4.90;100.00
60437;BME280;46289;51.992;4.498;2024-03-23T03:49:20;101056.41;;;5.00;100.00
60437;BME280;46289;51.992;4.498;2024-03-23T03:51:22;101050.28;;;5.02;100.00
60437;BME280;46289;51.992;4.498;2024-03-23T03:53:23;101050.28;;;5.02;100.00
60437;BME280;46289;51.992;4.498;2024-03-23T03:55:24;101041.69;;;4.97;100.00
60437;BME280;46289;51.992;4.498;2024-03-23T03:57:25;101044.19;;;5.05;100.00
60437;BME280;46289;51.992;4.498;2024-03-23T03:59:27;101034.81;;;4.93;100.00
60437;BME280;46289;51.992;4.498;2024-03-23T04:01:30;101038.22;;;4.98;100.00
60437;BME280;46289;51.992;4.498;2024-03-23T04:03:32;101039.97;;;4.98;100.00
60437;BME280;46289;51.992;4.498;2024-03-23T04:05:33;101035.66;;;4.95;100.00
60437;BME280;46289;51.992;4.498;2024-03-23T04:07:37;101033.13;;;4.89;100.00
60437;BME280;46289;51.992;4.498;2024-03-23T04:09:39;101030.66;;;4.78;100.00
60437;BME280;46289;51.992;4.498;2024-03-23T04:11:40;101032.41;;;4.78;100.00
60437;BME280;46289;51.992;4.498;2024-03-23T04:13:41;101029.00;;;4.73;100.00
60437;BME280;46289;51.992;4.498;2024-03-23T04:15:43;101029.06;;;4.68;100.00
60437;BME280;46289;51.992;4.498;2024-03-23T04:17:46;101020.28;;;4.75;100.00
60437;BME280;46289;51.992;4.498;2024-03-23T04:19:48;101023.78;;;4.74;100.00
60437;BME280;46289;51.992;4.498;2024-03-23T04:21:49;101027.31;;;4.70;100.00
60437;BME280;46289;51.992;4.498;2024-03-23T04:23:50;101027.41;;;4.64;100.00
60437;BME280;46289;51.992;4.498;2024-03-23T04:25:51;101036.09;;;4.61;100.00
60437;BME280;46289;51.992;4.498;2024-03-23T04:27:55;101028.25;;;4.63;100.00
60437;BME280;46289;51.992;4.498;2024-03-23T04:29:56;101029.19;;;4.59;100.00
60437;BME280;46289;51.992;4.498;2024-03-23T04:31:57;101025.75;;;4.57;100.00
60437;BME280;46289;51.992;4.498;2024-03-23T04:34:01;101027.50;;;4.55;100.00
60437;BME280;46289;51.992;4.498;2024-03-23T04:36:06;101030.09;;;4.55;100.00
60437;BME280;46289;51.992;4.498;2024-03-23T04:38:07;101024.03;;;4.56;100.00
60437;BME280;46289;51.992;4.498;2024-03-23T04:40:12;101027.47;;;4.58;100.00
60437;BME280;46289;51.992;4.498;2024-03-23T04:42:14;101026.63;;;4.56;100.00
60437;BME280;46289;51.992;4.498;2024-03-23T04:44:15;101018.84;;;4.54;100.00
60437;BME280;46289;51.992;4.498;2024-03-23T04:46:19;101027.47;;;4.58;100.00
60437;BME280;46289;51.992;4.498;2024-03-23T04:48:22;101026.50;;;4.67;100.00
60437;BME280;46289;51.992;4.498;2024-03-23T04:50:26;101025.66;;;4.66;100.00
60437;BME280;46289;51.992;4.498;2024-03-23T04:52:27;101029.94;;;4.69;100.00
60437;BME280;46289;51.992;4.498;2024-03-23T04:54:28;101030.00;;;4.64;100.00
60437;BME280;46289;51.992;4.498;2024-03-23T04:56:30;101032.56;;;4.66;100.00
60437;BME280;46289;51.992;4.498;2024-03-23T04:58:31;101032.56;;;4.69;100.00
60437;BME280;46289;51.992;4.498;2024-03-23T05:00:32;101033.41;;;4.68;100.00
60437;BME280;46289;51.992;4.498;2024-03-23T05:02:34;101029.91;;;4.72;100.00
60437;BME280;46289;51.992;4.498;2024-03-23T05:04:35;101030.72;;;4.77;100.00
60437;BME280;46289;51.992;4.498;2024-03-23T05:06:40;101039.28;;;4.85;100.00
60437;BME280;46289;51.992;4.498;2024-03-23T05:08:41;101037.38;;;4.96;100.00
60437;BME280;46289;51.992;4.498;2024-03-23T05:10:43;101036.47;;;5.00;100.00
60437;BME280;46289;51.992;4.498;2024-03-23T05:12:44;101031.16;;;5.05;100.00
60437;BME280;46289;51.992;4.498;2024-03-23T05:14:46;101033.69;;;5.11;100.00
60437;BME280;46289;51.992;4.498;2024-03-23T05:16:47;101028.50;;;5.10;100.00
60437;BME280;46289;51.992;4.498;2024-03-23T05:18:48;101030.25;;;5.07;100.00
60437;BME280;46289;51.992;4.498;2024-03-23T05:20:55;101041.56;;;5.05;100.00
60437;BME280;46289;51.992;4.498;2024-03-23T05:22:59;101042.41;;;5.07;100.00
60437;BME280;46289;51.992;4.498;2024-03-23T05:25:00;101038.00;;;5.14;100.00
60437;BME280;46289;51.992;4.498;2024-03-23T05:27:02;101036.03;;;5.28;100.00
60437;BME280;46289;51.992;4.498;2024-03-23T05:29:05;101042.16;;;5.25;100.00
60437;BME280;46289;51.992;4.498;2024-03-23T05:31:07;101032.56;;;5.26;100.00
60437;BME280;46289;51.992;4.498;2024-03-23T05:33:09;101035.97;;;5.31;100.00
60437;BME280;46289;51.992;4.498;2024-03-23T05:35:10;101031.72;;;5.27;100.00
60437;BME280;46289;51.992;4.498;2024-03-23T05:37:11;101037.66;;;5.35;100.00
60437;BME280;46289;51.992;4.498;2024-03-23T05:39:15;101031.53;;;5.38;100.00
60437;BME280;46289;51.992;4.498;2024-03-23T05:41:17;101034.09;;;5.39;100.00
60437;BME280;46289;51.992;4.498;2024-03-23T05:43:18;101033.19;;;5.42;100.00
60437;BME280;46289;51.992;4.498;2024-03-23T05:45:19;101031.50;;;5.41;100.00
60437;BME280;46289;51.992;4.498;2024-03-23T05:47:21;101039.25;;;5.45;100.00
60437;BME280;46289;51.992;4.498;2024-03-23T05:49:25;101024.53;;;5.41;100.00
60437;BME280;46289;51.992;4.498;2024-03-23T05:51:26;101024.53;;;5.41;100.00
60437;BME280;46289;51.992;4.498;2024-03-23T05:53:27;101029.81;;;5.37;100.00
60437;BME280;46289;51.992;4.498;2024-03-23T05:55:32;101027.97;;;5.42;100.00
60437;BME280;46289;51.992;4.498;2024-03-23T05:57:33;101020.91;;;5.50;100.00
60437;BME280;46289;51.992;4.498;2024-03-23T05:59:34;101015.69;;;5.50;100.00
60437;BME280;46289;51.992;4.498;2024-03-23T06:01:36;101026.03;;;5.56;100.00
60437;BME280;46289;51.992;4.498;2024-03-23T06:03:37;101021.72;;;5.54;100.00
60437;BME280;46289;51.992;4.498;2024-03-23T06:05:39;101026.09;;;5.53;100.00
60437;BME280;46289;51.992;4.498;2024-03-23T06:07:40;101023.31;;;5.62;100.00
60437;BME280;46289;51.992;4.498;2024-03-23T06:09:41;101020.69;;;5.62;100.00
60437;BME280;46289;51.992;4.498;2024-03-23T06:11:46;101023.28;;;5.64;100.00
60437;BME280;46289;51.992;4.498;2024-03-23T06:13:47;101023.28;;;5.64;100.00
60437;BME280;46289;51.992;4.498;2024-03-23T06:15:48;101024.19;;;5.61;100.00
60437;BME280;46289;51.992;4.498;2024-03-23T06:17:49;101015.53;;;5.59;100.00
60437;BME280;46289;51.992;4.498;2024-03-23T06:19:50;101018.88;;;5.66;100.00
60437;BME280;46289;51.992;4.498;2024-03-23T06:21:52;101017.16;;;5.66;100.00
60437;BME280;46289;51.992;4.498;2024-03-23T06:23:54;101023.22;;;5.67;100.00
60437;BME280;46289;51.992;4.498;2024-03-23T06:25:55;101020.56;;;5.71;100.00
60437;BME280;46289;51.992;4.498;2024-03-23T06:27:59;101019.66;;;5.72;100.00
60437;BME280;46289;51.992;4.498;2024-03-23T06:30:00;101023.03;;;5.78;100.00
60437;BME280;46289;51.992;4.498;2024-03-23T06:32:01;101027.28;;;5.83;100.00
60437;BME280;46289;51.992;4.498;2024-03-23T06:34:03;101024.59;;;5.88;100.00
60437;BME280;46289;51.992;4.498;2024-03-23T06:36:05;101016.84;;;5.85;100.00
60437;BME280;46289;51.992;4.498;2024-03-23T06:38:07;101022.94;;;5.84;100.00
60437;BME280;46289;51.992;4.498;2024-03-23T06:40:08;101027.22;;;5.88;100.00
60437;BME280;46289;51.992;4.498;2024-03-23T06:42:10;101027.16;;;5.89;100.00
60437;BME280;46289;51.992;4.498;2024-03-23T06:44:14;101026.28;;;5.90;100.00
60437;BME280;46289;51.992;4.498;2024-03-23T06:46:15;101025.34;;;5.96;100.00
60437;BME280;46289;51.992;4.498;2024-03-23T06:48:16;101026.13;;;6.00;100.00
60437;BME280;46289;51.992;4.498;2024-03-23T06:50:18;101023.41;;;6.07;100.00
60437;BME280;46289;51.992;4.498;2024-03-23T06:52:19;101021.34;;;6.25;100.00
60437;BME280;46289;51.992;4.498;2024-03-23T06:54:20;101029.66;;;6.42;100.00
60437;BME280;46289;51.992;4.498;2024-03-23T06:56:21;101019.06;;;6.50;100.00
60437;BME280;46289;51.992;4.498;2024-03-23T06:58:24;101029.50;;;6.50;100.00
60437;BME280;46289;51.992;4.498;2024-03-23T07:00:28;101030.56;;;6.41;100.00
60437;BME280;46289;51.992;4.498;2024-03-23T07:02:29;101028.84;;;6.40;100.00
60437;BME280;46289;51.992;4.498;2024-03-23T07:04:30;101024.44;;;6.42;100.00
60437;BME280;46289;51.992;4.498;2024-03-23T07:06:31;101027.13;;;6.39;100.00
60437;BME280;46289;51.992;4.498;2024-03-23T07:08:33;101034.94;;;6.39;100.00
60437;BME280;46289;51.992;4.498;2024-03-23T07:10:34;101032.44;;;6.34;100.00
60437;BME280;46289;51.992;4.498;2024-03-23T07:12:35;101028.91;;;6.37;100.00
60437;BME280;46289;51.992;4.498;2024-03-23T07:14:36;101030.63;;;6.38;100.00
60437;BME280;46289;51.992;4.498;2024-03-23T07:16:40;101022.44;;;6.56;100.00
60437;BME280;46289;51.992;4.498;2024-03-23T07:18:41;101027.56;;;6.61;100.00
60437;BME280;46289;51.992;4.498;2024-03-23T07:20:42;101036.25;;;6.60;100.00
60437;BME280;46289;51.992;4.498;2024-03-23T07:22:55;101025.91;;;6.55;100.00
60437;BME280;46289;51.992;4.498;2024-03-23T07:24:56;101023.47;;;6.88;100.00
60437;BME280;46289;51.992;4.498;2024-03-23T07:26:57;101031.69;;;7.10;100.00
60437;BME280;46289;51.992;4.498;2024-03-23T07:28:58;101030.72;;;7.14;100.00
60437;BME280;46289;51.992;4.498;2024-03-23T07:31:04;101035.78;;;6.83;100.00
60437;BME280;46289;51.992;4.498;2024-03-23T07:33:09;101035.97;;;6.74;100.00
60437;BME280;46289;51.992;4.498;2024-03-23T07:35:10;101034.25;;;6.73;100.00
60437;BME280;46289;51.992;4.498;2024-03-23T07:37:12;101035.56;;;6.53;100.00
60437;BME280;46289;51.992;4.498;2024-03-23T07:39:13;101029.28;;;6.60;100.00
60437;BME280;46289;51.992;4.498;2024-03-23T07:41:16;101022.47;;;7.31;100.00
60437;BME280;46289;51.992;4.498;2024-03-23T07:43:18;101015.47;;;7.33;100.00
60437;BME280;46289;51.992;4.498;2024-03-23T07:45:19;101023.97;;;7.41;100.00
60437;BME280;46289;51.992;4.498;2024-03-23T07:47:20;101028.94;;;7.16;100.00
60437;BME280;46289;51.992;4.498;2024-03-23T07:49:24;101011.84;;;7.01;100.00
60437;BME280;46289;51.992;4.498;2024-03-23T07:51:25;101027.09;;;6.82;100.00
60437;BME280;46289;51.992;4.498;2024-03-23T07:53:27;101020.44;;;6.68;100.00
60437;BME280;46289;51.992;4.498;2024-03-23T07:55:28;101017.00;;;6.66;100.00
60437;BME280;46289;51.992;4.498;2024-03-23T07:57:29;101016.00;;;7.10;100.00
60437;BME280;46289;51.992;4.498;2024-03-23T07:59:30;101017.56;;;7.19;100.00
60437;BME280;46289;51.992;4.498;2024-03-23T08:01:33;101023.06;;;7.07;100.00
60437;BME280;46289;51.992;4.498;2024-03-23T08:03:34;101017.06;;;7.73;100.00
60437;BME280;46289;51.992;4.498;2024-03-23T08:05:38;101015.69;;;8.25;100.00
60437;BME280;46289;51.992;4.498;2024-03-23T08:07:39;101017.03;;;8.39;100.00
60437;BME280;46289;51.992;4.498;2024-03-23T08:09:40;101013.25;;;8.80;100.00
60437;BME280;46289;51.992;4.498;2024-03-23T08:11:41;101003.03;;;8.41;100.00
60437;BME280;46289;51.992;4.498;2024-03-23T08:13:45;101010.41;;;8.88;100.00
60437;BME280;46289;51.992;4.498;2024-03-23T08:15:46;101022.59;;;8.28;100.00
60437;BME280;46289;51.992;4.498;2024-03-23T08:17:49;101015.63;;;7.96;100.00
60437;BME280;46289;51.992;4.498;2024-03-23T08:19:50;101013.75;;;8.01;100.00
60437;BME280;46289;51.992;4.498;2024-03-23T08:21:54;101021.25;;;7.80;100.00
60437;BME280;46289;51.992;4.498;2024-03-23T08:23:55;101010.72;;;7.82;100.00
60437;BME280;46289;51.992;4.498;2024-03-23T08:25:58;101017.91;;;7.75;100.00
60437;BME280;46289;51.992;4.498;2024-03-23T08:27:59;101014.47;;;8.06;100.00
60437;BME280;46289;51.992;4.498;2024-03-23T08:30:00;101014.03;;;8.21;100.00
60437;BME280;46289;51.992;4.498;2024-03-23T08:32:01;101012.91;;;8.91;100.00
60437;BME280;46289;51.992;4.498;2024-03-23T08:34:02;101012.94;;;8.89;100.00
60437;BME280;46289;51.992;4.498;2024-03-23T08:36:05;101007.84;;;9.13;100.00
60437;BME280;46289;51.992;4.498;2024-03-23T08:38:09;101001.34;;;8.98;100.00
60437;BME280;46289;51.992;4.498;2024-03-23T08:40:11;101003.88;;;8.42;100.00
60437;BME280;46289;51.992;4.498;2024-03-23T08:42:12;101009.19;;;8.40;100.00
60437;BME280;46289;51.992;4.498;2024-03-23T08:44:13;101003.94;;;8.39;100.00
60437;BME280;46289;51.992;4.498;2024-03-23T08:46:16;101013.75;;;8.01;100.00
60437;BME280;46289;51.992;4.498;2024-03-23T08:48:18;101015.97;;;7.47;100.00
60437;BME280;46289;51.992;4.498;2024-03-23T08:50:19;101019.75;;;7.36;100.00
60437;BME280;46289;51.992;4.498;2024-03-23T08:52:20;101019.28;;;7.20;100.00
60437;BME280;46289;51.992;4.498;2024-03-23T08:54:25;101012.69;;;7.03;100.00
60437;BME280;46289;51.992;4.498;2024-03-23T08:56:26;101022.28;;;7.03;100.00
60437;BME280;46289;51.992;4.498;2024-03-23T08:58:28;101015.66;;;7.24;100.00
60437;BME280;46289;51.992;4.498;2024-03-23T09:00:30;101017.16;;;7.34;100.00
60437;BME280;46289;51.992;4.498;2024-03-23T09:02:31;101023.13;;;7.41;100.00
60437;BME280;46289;51.992;4.498;2024-03-23T09:04:34;101014.38;;;8.09;100.00
60437;BME280;46289;51.992;4.498;2024-03-23T09:06:35;101010.69;;;8.49;100.00
60437;BME280;46289;51.992;4.498;2024-03-23T09:08:37;101015.09;;;7.83;100.00
60437;BME280;46289;51.992;4.498;2024-03-23T09:10:42;101019.66;;;8.07;100.00
60437;BME280;46289;51.992;4.498;2024-03-23T09:12:43;101017.59;;;7.87;100.00
60437;BME280;46289;51.992;4.498;2024-03-23T09:14:44;101011.97;;;8.01;100.00
60437;BME280;46289;51.992;4.498;2024-03-23T09:16:45;101006.69;;;8.03;100.00
60437;BME280;46289;51.992;4.498;2024-03-23T09:18:47;101016.66;;;7.56;100.00
60437;BME280;46289;51.992;4.498;2024-03-23T09:20:48;101020.00;;;7.61;100.00
60437;BME280;46289;51.992;4.498;2024-03-23T09:22:49;101010.34;;;7.63;100.00
60437;BME280;46289;51.992;4.498;2024-03-23T09:24:50;101017.13;;;7.72;100.00
60437;BME280;46289;51.992;4.498;2024-03-23T09:26:54;101014.53;;;7.70;100.00
60437;BME280;46289;51.992;4.498;2024-03-23T09:28:55;101021.06;;;7.88;100.00
60437;BME280;46289;51.992;4.498;2024-03-23T09:31:02;101020.53;;;7.75;100.00
60437;BME280;46289;51.992;4.498;2024-03-23T09:33:04;101020.97;;;7.57;100.00
60437;BME280;46289;51.992;4.498;2024-03-23T09:35:05;101016.41;;;7.29;100.00
60437;BME280;46289;51.992;4.498;2024-03-23T09:37:06;101006.50;;;7.43;100.00
60437;BME280;46289;51.992;4.498;2024-03-23T09:39:08;101020.16;;;7.55;100.00
60437;BME280;46289;51.992;4.498;2024-03-23T09:41:10;101018.88;;;8.04;100.00
60437;BME280;46289;51.992;4.498;2024-03-23T09:43:14;101010.22;;;8.02;100.00
60437;BME280;46289;51.992;4.498;2024-03-23T09:45:19;101015.91;;;7.85;100.00
60437;BME280;46289;51.992;4.498;2024-03-23T09:47:24;101013.56;;;8.07;100.00
60437;BME280;46289;51.992;4.498;2024-03-23T09:49:25;101018.81;;;8.07;100.00
60437;BME280;46289;51.992;4.498;2024-03-23T09:51:27;101013.25;;;7.86;100.00
60437;BME280;46289;51.992;4.498;2024-03-23T09:53:28;101014.25;;;7.82;100.00
60437;BME280;46289;51.992;4.498;2024-03-23T09:55:29;101015.81;;;7.88;100.00
60437;BME280;46289;51.992;4.498;2024-03-23T09:57:30;101015.00;;;7.86;100.00
60437;BME280;46289;51.992;4.498;2024-03-23T09:59:34;101004.72;;;7.80;100.00
60437;BME280;46289;51.992;4.498;2024-03-23T10:01:36;100999.44;;;8.45;100.00
60437;BME280;46289;51.992;4.498;2024-03-23T10:03:43;101006.03;;;8.59;100.00
60437;BME280;46289;51.992;4.498;2024-03-23T10:05:44;101003.88;;;8.71;100.00
60437;BME280;46289;51.992;4.498;2024-03-23T10:07:45;100996.72;;;9.59;100.00
60437;BME280;46289;51.992;4.498;2024-03-23T10:09:47;100999.91;;;10.18;100.00
60437;BME280;46289;51.992;4.498;2024-03-23T10:11:48;101007.75;;;9.94;100.00
60437;BME280;46289;51.992;4.498;2024-03-23T10:13:49;101001.56;;;9.72;100.00
60437;BME280;46289;51.992;4.498;2024-03-23T10:15:58;101015.00;;;8.79;100.00
60437;BME280;46289;51.992;4.498;2024-03-23T10:18:17;101022.78;;;8.22;100.00
60437;BME280;46289;51.992;4.498;2024-03-23T10:20:20;101019.16;;;8.87;100.00
60437;BME280;46289;51.992;4.498;2024-03-23T10:22:22;101000.22;;;9.58;100.00
60437;BME280;46289;51.992;4.498;2024-03-23T10:24:24;101003.66;;;9.07;100.00
60437;BME280;46289;51.992;4.498;2024-03-23T10:26:25;101000.97;;;8.52;100.00
60437;BME280;46289;51.992;4.498;2024-03-23T10:28:27;101008.59;;;8.60;100.00
60437;BME280;46289;51.992;4.498;2024-03-23T10:30:28;100996.13;;;8.37;100.00
60437;BME280;46289;51.992;4.498;2024-03-23T10:32:32;101004.88;;;8.05;100.00
60437;BME280;46289;51.992;4.498;2024-03-23T10:34:33;101006.31;;;9.06;100.00
60437;BME280;46289;51.992;4.498;2024-03-23T10:36:38;100998.50;;;9.59;100.00
60437;BME280;46289;51.992;4.498;2024-03-23T10:38:42;100999.47;;;10.06;100.00
60437;BME280;46289;51.992;4.498;2024-03-23T10:40:44;101004.72;;;9.55;100.00
60437;BME280;46289;51.992;4.498;2024-03-23T10:42:46;100988.31;;;9.75;100.00
60437;BME280;46289;51.992;4.498;2024-03-23T10:44:48;100993.97;;;10.13;100.00
60437;BME280;46289;51.992;4.498;2024-03-23T10:46:50;100998.88;;;9.47;100.00
60437;BME280;46289;51.992;4.498;2024-03-23T10:48:54;100991.84;;;9.22;100.00
60437;BME280;46289;51.992;4.498;2024-03-23T10:50:55;100991.84;;;9.22;100.00
60437;BME280;46289;51.992;4.498;2024-03-23T10:52:58;100997.47;;;9.10;100.00
60437;BME280;46289;51.992;4.498;2024-03-23T10:55:01;101001.66;;;9.15;100.00
60437;BME280;46289;51.992;4.498;2024-03-23T10:57:09;100981.84;;;9.07;100.00
60437;BME280;46289;51.992;4.498;2024-03-23T10:59:12;100985.03;;;8.88;100.00
60437;BME280;46289;51.992;4.498;2024-03-23T11:01:14;100984.31;;;9.38;100.00
60437;BME280;46289;51.992;4.498;2024-03-23T11:03:30;100978.56;;;9.53;100.00
60437;BME280;46289;51.992;4.498;2024-03-23T11:05:34;100979.34;;;9.55;100.00
60437;BME280;46289;51.992;4.498;2024-03-23T11:07:35;100979.78;;;9.43;100.00
60437;BME280;46289;51.992;4.498;2024-03-23T11:09:39;100977.50;;;9.59;100.00
60437;BME280;46289;51.992;4.498;2024-03-23T11:11:41;100986.47;;;9.77;100.00
60437;BME280;46289;51.992;4.498;2024-03-23T11:13:48;100983.50;;;9.36;100.00
60437;BME280;46289;51.992;4.498;2024-03-23T11:15:49;100990.44;;;9.10;100.00
60437;BME280;46289;51.992;4.498;2024-03-23T11:18:06;100987.63;;;9.70;100.00
60437;BME280;46289;51.992;4.498;2024-03-23T11:20:11;100984.72;;;10.51;100.00
60437;BME280;46289;51.992;4.498;2024-03-23T11:22:38;100973.16;;;11.01;100.00
60437;BME280;46289;51.992;4.498;2024-03-23T11:24:39;100962.06;;;10.92;100.00
60437;BME280;46289;51.992;4.498;2024-03-23T11:26:40;100962.06;;;10.48;100.00
60437;BME280;46289;51.992;4.498;2024-03-23T11:28:42;100966.88;;;9.87;100.00
60437;BME280;46289;51.992;4.498;2024-03-23T11:30:43;100960.03;;;9.83;100.00
60437;BME280;46289;51.992;4.498;2024-03-23T11:32:46;100958.69;;;9.71;100.00